sensor_id;sensor_type;location;lat;lon;timestamp;temperature;humidity
10566;DHT22;5331;48.148;16.326;2022-09-27T00:00:58;12.30;1.00
10566;DHT22;5331;48.148;16.326;2022-09-27T00:03:24;12.30;1.00
10566;DHT22;5331;48.148;16.326;2022-09-27T00:06:00;12.30;1.00
10566;DHT22;5331;48.148;16.326;2022-09-27T00:08:29;12.30;1.00
10566;DHT22;5331;48.148;16.326;2022-09-27T00:11:02;12.20;1.00
10566;DHT22;5331;48.148;16.326;2022-09-27T00:13:29;12.20;1.00
10566;DHT22;5331;48.148;16.326;2022-09-27T00:15:57;12.20;1.00
10566;DHT22;5331;48.148;16.326;2022-09-27T00:18:25;12.20;1.00
10566;DHT22;5331;48.148;16.326;2022-09-27T00:20:52;12.10;1.00
10566;DHT22;5331;48.148;16.326;2022-09-27T00:23:19;12.00;1.00
10566;DHT22;5331;48.148;16.326;2022-09-27T00:25:56;12.00;1.00
10566;DHT22;5331;48.148;16.326;2022-09-27T00:28:26;11.90;1.00
10566;DHT22;5331;48.148;16.326;2022-09-27T00:30:53;11.90;1.00
10566;DHT22;5331;48.148;16.326;2022-09-27T00:33:20;11.80;1.00
10566;DHT22;5331;48.148;16.326;2022-09-27T00:35:46;11.80;1.00
10566;DHT22;5331;48.148;16.326;2022-09-27T00:38:13;11.80;1.00
10566;DHT22;5331;48.148;16.326;2022-09-27T00:40:41;11.80;1.00
10566;DHT22;5331;48.148;16.326;2022-09-27T00:43:16;11.80;1.00
10566;DHT22;5331;48.148;16.326;2022-09-27T00:45:47;11.80;1.00
10566;DHT22;5331;48.148;16.326;2022-09-27T00:48:17;11.80;1.00
10566;DHT22;5331;48.148;16.326;2022-09-27T00:50:48;11.70;1.00
10566;DHT22;5331;48.148;16.326;2022-09-27T00:53:19;11.70;1.00
10566;DHT22;5331;48.148;16.326;2022-09-27T00:55:49;11.70;1.00
10566;DHT22;5331;48.148;16.326;2022-09-27T00:58:21;11.70;1.00
10566;DHT22;5331;48.148;16.326;2022-09-27T01:00:54;11.60;1.00
10566;DHT22;5331;48.148;16.326;2022-09-27T01:03:27;11.60;1.00
10566;DHT22;5331;48.148;16.326;2022-09-27T01:05:57;11.60;1.00
10566;DHT22;5331;48.148;16.326;2022-09-27T01:08:25;11.60;1.00
10566;DHT22;5331;48.148;16.326;2022-09-27T01:11:01;11.60;1.00
10566;DHT22;5331;48.148;16.326;2022-09-27T01:13:36;11.50;1.00
10566;DHT22;5331;48.148;16.326;2022-09-27T01:16:11;11.50;1.00
10566;DHT22;5331;48.148;16.326;2022-09-27T01:18:46;11.50;1.00
10566;DHT22;5331;48.148;16.326;2022-09-27T01:21:34;11.40;1.00
10566;DHT22;5331;48.148;16.326;2022-09-27T01:32:54;11.30;1.00
10566;DHT22;5331;48.148;16.326;2022-09-27T01:35:33;11.30;1.00
10566;DHT22;5331;48.148;16.326;2022-09-27T01:38:11;11.30;1.00
10566;DHT22;5331;48.148;16.326;2022-09-27T01:40:47;11.30;1.00
10566;DHT22;5331;48.148;16.326;2022-09-27T01:43:19;11.30;1.00
10566;DHT22;5331;48.148;16.326;2022-09-27T01:45:52;11.30;1.00
10566;DHT22;5331;48.148;16.326;2022-09-27T01:48:23;11.30;1.00
10566;DHT22;5331;48.148;16.326;2022-09-27T01:50:53;11.30;1.00
10566;DHT22;5331;48.148;16.326;2022-09-27T01:53:24;11.30;1.00
10566;DHT22;5331;48.148;16.326;2022-09-27T01:55:54;11.20;1.00
10566;DHT22;5331;48.148;16.326;2022-09-27T01:58:25;11.20;1.00
10566;DHT22;5331;48.148;16.326;2022-09-27T02:00:54;11.20;1.00
10566;DHT22;5331;48.148;16.326;2022-09-27T02:03:25;11.10;1.00
10566;DHT22;5331;48.148;16.326;2022-09-27T02:05:59;11.00;1.00
10566;DHT22;5331;48.148;16.326;2022-09-27T02:08:30;11.00;1.00
10566;DHT22;5331;48.148;16.326;2022-09-27T02:11:04;11.00;1.00
10566;DHT22;5331;48.148;16.326;2022-09-27T02:13:39;10.90;1.00
10566;DHT22;5331;48.148;16.326;2022-09-27T02:16:16;10.90;1.00
10566;DHT22;5331;48.148;16.326;2022-09-27T02:18:52;10.90;1.00
10566;DHT22;5331;48.148;16.326;2022-09-27T02:21:27;10.80;1.00
10566;DHT22;5331;48.148;16.326;2022-09-27T02:23:58;10.80;1.00
10566;DHT22;5331;48.148;16.326;2022-09-27T02:26:30;10.80;1.00
10566;DHT22;5331;48.148;16.326;2022-09-27T02:29:03;10.80;1.00
10566;DHT22;5331;48.148;16.326;2022-09-27T02:31:31;10.80;1.00
10566;DHT22;5331;48.148;16.326;2022-09-27T02:34:02;10.90;1.00
10566;DHT22;5331;48.148;16.326;2022-09-27T02:36:31;10.90;1.00
10566;DHT22;5331;48.148;16.326;2022-09-27T02:38:58;10.90;1.00
10566;DHT22;5331;48.148;16.326;2022-09-27T02:41:25;10.90;1.00
10566;DHT22;5331;48.148;16.326;2022-09-27T02:43:55;11.00;1.00
10566;DHT22;5331;48.148;16.326;2022-09-27T02:46:46;11.00;1.00
10566;DHT22;5331;48.148;16.326;2022-09-27T02:49:31;10.90;1.00
10566;DHT22;5331;48.148;16.326;2022-09-27T02:52:11;10.90;1.00
10566;DHT22;5331;48.148;16.326;2022-09-27T02:54:46;10.90;1.00
10566;DHT22;5331;48.148;16.326;2022-09-27T02:57:24;10.90;1.00
10566;DHT22;5331;48.148;16.326;2022-09-27T02:59:59;10.90;1.00
10566;DHT22;5331;48.148;16.326;2022-09-27T03:02:33;10.80;1.00
10566;DHT22;5331;48.148;16.326;2022-09-27T03:05:05;10.90;1.00
10566;DHT22;5331;48.148;16.326;2022-09-27T03:07:34;10.80;1.00
10566;DHT22;5331;48.148;16.326;2022-09-27T03:10:04;10.80;1.00
10566;DHT22;5331;48.148;16.326;2022-09-27T03:12:31;10.90;1.00
10566;DHT22;5331;48.148;16.326;2022-09-27T03:14:59;10.90;1.00
10566;DHT22;5331;48.148;16.326;2022-09-27T03:17:26;10.90;1.00
10566;DHT22;5331;48.148;16.326;2022-09-27T03:19:53;10.90;1.00
10566;DHT22;5331;48.148;16.326;2022-09-27T03:22:21;10.90;1.00
10566;DHT22;5331;48.148;16.326;2022-09-27T03:24:48;10.90;1.00
10566;DHT22;5331;48.148;16.326;2022-09-27T03:27:15;10.90;1.00
10566;DHT22;5331;48.148;16.326;2022-09-27T03:29:42;10.90;1.00
10566;DHT22;5331;48.148;16.326;2022-09-27T03:32:09;10.80;1.00
10566;DHT22;5331;48.148;16.326;2022-09-27T03:34:36;10.80;1.00
10566;DHT22;5331;48.148;16.326;2022-09-27T03:37:03;10.90;1.00
10566;DHT22;5331;48.148;16.326;2022-09-27T03:39:31;10.90;1.00
10566;DHT22;5331;48.148;16.326;2022-09-27T03:41:58;10.90;1.00
10566;DHT22;5331;48.148;16.326;2022-09-27T03:44:25;10.90;1.00
10566;DHT22;5331;48.148;16.326;2022-09-27T03:46:52;10.90;1.00
10566;DHT22;5331;48.148;16.326;2022-09-27T03:49:19;11.00;1.00
10566;DHT22;5331;48.148;16.326;2022-09-27T03:51:46;10.90;1.00
10566;DHT22;5331;48.148;16.326;2022-09-27T03:54:12;11.00;1.00
10566;DHT22;5331;48.148;16.326;2022-09-27T03:56:41;11.00;1.00
10566;DHT22;5331;48.148;16.326;2022-09-27T03:59:07;11.00;1.00
10566;DHT22;5331;48.148;16.326;2022-09-27T04:01:34;11.00;1.00
10566;DHT22;5331;48.148;16.326;2022-09-27T04:04:03;11.00;1.00
10566;DHT22;5331;48.148;16.326;2022-09-27T04:06:30;11.00;1.00
10566;DHT22;5331;48.148;16.326;2022-09-27T04:08:57;11.00;1.00
10566;DHT22;5331;48.148;16.326;2022-09-27T04:11:24;11.00;1.00
10566;DHT22;5331;48.148;16.326;2022-09-27T04:13:53;11.00;1.00
10566;DHT22;5331;48.148;16.326;2022-09-27T04:16:20;11.00;1.00
10566;DHT22;5331;48.148;16.326;2022-09-27T04:18:47;11.00;1.00
10566;DHT22;5331;48.148;16.326;2022-09-27T04:21:14;11.00;1.00
10566;DHT22;5331;48.148;16.326;2022-09-27T04:23:41;11.00;1.00
10566;DHT22;5331;48.148;16.326;2022-09-27T04:26:08;11.00;1.00
10566;DHT22;5331;48.148;16.326;2022-09-27T04:28:35;11.00;1.00
10566;DHT22;5331;48.148;16.326;2022-09-27T04:31:04;11.00;1.00
10566;DHT22;5331;48.148;16.326;2022-09-27T04:33:31;11.00;1.00
10566;DHT22;5331;48.148;16.326;2022-09-27T04:35:58;11.10;1.00
10566;DHT22;5331;48.148;16.326;2022-09-27T04:38:42;11.10;1.00
10566;DHT22;5331;48.148;16.326;2022-09-27T04:41:09;11.10;1.00
10566;DHT22;5331;48.148;16.326;2022-09-27T04:43:36;11.10;1.00
10566;DHT22;5331;48.148;16.326;2022-09-27T04:46:04;11.10;1.00
10566;DHT22;5331;48.148;16.326;2022-09-27T04:48:31;11.10;1.00
10566;DHT22;5331;48.148;16.326;2022-09-27T04:50:59;11.10;1.00
10566;DHT22;5331;48.148;16.326;2022-09-27T04:53:27;11.10;1.00
10566;DHT22;5331;48.148;16.326;2022-09-27T04:55:55;11.20;1.00
10566;DHT22;5331;48.148;16.326;2022-09-27T04:58:22;11.10;1.00
10566;DHT22;5331;48.148;16.326;2022-09-27T05:00:49;11.20;1.00
10566;DHT22;5331;48.148;16.326;2022-09-27T05:03:19;11.20;1.00
10566;DHT22;5331;48.148;16.326;2022-09-27T05:05:45;11.20;1.00
10566;DHT22;5331;48.148;16.326;2022-09-27T05:08:13;11.20;1.00
10566;DHT22;5331;48.148;16.326;2022-09-27T05:10:40;11.20;1.00
10566;DHT22;5331;48.148;16.326;2022-09-27T05:13:06;11.30;1.00
10566;DHT22;5331;48.148;16.326;2022-09-27T05:15:33;11.30;1.00
10566;DHT22;5331;48.148;16.326;2022-09-27T05:18:01;11.30;1.00
10566;DHT22;5331;48.148;16.326;2022-09-27T05:20:29;11.40;1.00
10566;DHT22;5331;48.148;16.326;2022-09-27T05:22:56;11.40;1.00
10566;DHT22;5331;48.148;16.326;2022-09-27T05:25:23;11.40;1.00
10566;DHT22;5331;48.148;16.326;2022-09-27T05:27:50;11.40;1.00
10566;DHT22;5331;48.148;16.326;2022-09-27T05:30:17;11.40;1.00
10566;DHT22;5331;48.148;16.326;2022-09-27T05:32:45;11.40;1.00
10566;DHT22;5331;48.148;16.326;2022-09-27T05:35:12;11.50;1.00
10566;DHT22;5331;48.148;16.326;2022-09-27T05:37:41;11.50;1.00
10566;DHT22;5331;48.148;16.326;2022-09-27T05:40:08;11.60;1.00
10566;DHT22;5331;48.148;16.326;2022-09-27T05:42:37;11.60;1.00
10566;DHT22;5331;48.148;16.326;2022-09-27T05:45:05;11.60;1.00
10566;DHT22;5331;48.148;16.326;2022-09-27T05:47:32;11.60;1.00
10566;DHT22;5331;48.148;16.326;2022-09-27T05:49:59;11.60;1.00
10566;DHT22;5331;48.148;16.326;2022-09-27T05:52:26;11.70;1.00
10566;DHT22;5331;48.148;16.326;2022-09-27T05:54:54;11.70;1.00
10566;DHT22;5331;48.148;16.326;2022-09-27T05:57:22;11.80;1.00
10566;DHT22;5331;48.148;16.326;2022-09-27T05:59:49;11.90;1.00
10566;DHT22;5331;48.148;16.326;2022-09-27T06:02:16;11.80;1.00
10566;DHT22;5331;48.148;16.326;2022-09-27T06:04:43;11.90;1.00
10566;DHT22;5331;48.148;16.326;2022-09-27T06:07:10;11.90;1.00
10566;DHT22;5331;48.148;16.326;2022-09-27T06:09:37;11.90;1.00
10566;DHT22;5331;48.148;16.326;2022-09-27T06:12:05;12.00;1.00
10566;DHT22;5331;48.148;16.326;2022-09-27T06:14:35;12.10;1.00
10566;DHT22;5331;48.148;16.326;2022-09-27T06:17:04;12.10;1.00
10566;DHT22;5331;48.148;16.326;2022-09-27T06:19:45;12.20;1.00
10566;DHT22;5331;48.148;16.326;2022-09-27T06:22:14;12.30;1.00
10566;DHT22;5331;48.148;16.326;2022-09-27T06:24:40;12.30;1.00
10566;DHT22;5331;48.148;16.326;2022-09-27T06:27:09;12.30;1.00
10566;DHT22;5331;48.148;16.326;2022-09-27T06:29:36;12.40;1.00
10566;DHT22;5331;48.148;16.326;2022-09-27T06:32:03;12.40;1.00
10566;DHT22;5331;48.148;16.326;2022-09-27T06:34:30;12.40;1.00
10566;DHT22;5331;48.148;16.326;2022-09-27T06:36:57;12.50;1.00
10566;DHT22;5331;48.148;16.326;2022-09-27T06:39:24;12.50;1.00
10566;DHT22;5331;48.148;16.326;2022-09-27T06:41:53;12.60;1.00
10566;DHT22;5331;48.148;16.326;2022-09-27T06:44:24;12.60;1.00
10566;DHT22;5331;48.148;16.326;2022-09-27T06:46:52;12.70;1.00
10566;DHT22;5331;48.148;16.326;2022-09-27T06:49:22;12.80;1.00
10566;DHT22;5331;48.148;16.326;2022-09-27T06:51:50;12.90;1.00
10566;DHT22;5331;48.148;16.326;2022-09-27T06:54:17;12.90;1.00
10566;DHT22;5331;48.148;16.326;2022-09-27T06:56:46;12.90;1.00
10566;DHT22;5331;48.148;16.326;2022-09-27T06:59:13;13.10;1.00
10566;DHT22;5331;48.148;16.326;2022-09-27T07:01:59;13.10;1.00
10566;DHT22;5331;48.148;16.326;2022-09-27T07:04:26;13.20;1.00
10566;DHT22;5331;48.148;16.326;2022-09-27T07:06:53;13.20;1.00
10566;DHT22;5331;48.148;16.326;2022-09-27T07:09:20;13.30;1.00
10566;DHT22;5331;48.148;16.326;2022-09-27T07:11:47;13.30;1.00
10566;DHT22;5331;48.148;16.326;2022-09-27T07:14:14;13.40;1.00
10566;DHT22;5331;48.148;16.326;2022-09-27T07:16:42;13.40;1.00
10566;DHT22;5331;48.148;16.326;2022-09-27T07:19:10;13.40;1.00
10566;DHT22;5331;48.148;16.326;2022-09-27T07:21:39;13.40;1.00
10566;DHT22;5331;48.148;16.326;2022-09-27T07:24:06;13.40;1.00
10566;DHT22;5331;48.148;16.326;2022-09-27T07:26:32;13.30;1.00
10566;DHT22;5331;48.148;16.326;2022-09-27T07:28:59;13.30;1.00
10566;DHT22;5331;48.148;16.326;2022-09-27T07:31:26;13.30;1.00
10566;DHT22;5331;48.148;16.326;2022-09-27T07:33:54;13.30;1.00
10566;DHT22;5331;48.148;16.326;2022-09-27T07:36:22;13.30;1.00
10566;DHT22;5331;48.148;16.326;2022-09-27T07:38:49;13.20;1.00
10566;DHT22;5331;48.148;16.326;2022-09-27T07:41:16;13.30;1.00
10566;DHT22;5331;48.148;16.326;2022-09-27T07:43:43;13.30;1.00
10566;DHT22;5331;48.148;16.326;2022-09-27T07:46:10;13.30;1.00
10566;DHT22;5331;48.148;16.326;2022-09-27T07:48:38;13.30;1.00
10566;DHT22;5331;48.148;16.326;2022-09-27T07:51:05;13.30;1.00
10566;DHT22;5331;48.148;16.326;2022-09-27T07:53:36;13.30;1.00
10566;DHT22;5331;48.148;16.326;2022-09-27T07:56:06;13.40;1.00
10566;DHT22;5331;48.148;16.326;2022-09-27T07:58:33;13.40;1.00
10566;DHT22;5331;48.148;16.326;2022-09-27T08:01:00;13.40;1.00
10566;DHT22;5331;48.148;16.326;2022-09-27T08:03:28;13.50;1.00
10566;DHT22;5331;48.148;16.326;2022-09-27T08:05:55;13.40;1.00
10566;DHT22;5331;48.148;16.326;2022-09-27T08:08:22;13.50;1.00
10566;DHT22;5331;48.148;16.326;2022-09-27T08:10:51;13.40;1.00
10566;DHT22;5331;48.148;16.326;2022-09-27T08:13:18;13.40;1.00
10566;DHT22;5331;48.148;16.326;2022-09-27T08:15:45;13.40;1.00
10566;DHT22;5331;48.148;16.326;2022-09-27T08:18:13;13.50;1.00
10566;DHT22;5331;48.148;16.326;2022-09-27T08:20:40;13.40;1.00
10566;DHT22;5331;48.148;16.326;2022-09-27T08:23:07;13.40;1.00
10566;DHT22;5331;48.148;16.326;2022-09-27T08:25:35;13.30;1.00
10566;DHT22;5331;48.148;16.326;2022-09-27T08:28:04;13.20;1.00
10566;DHT22;5331;48.148;16.326;2022-09-27T08:30:33;13.10;1.00
10566;DHT22;5331;48.148;16.326;2022-09-27T08:33:01;13.00;1.00
10566;DHT22;5331;48.148;16.326;2022-09-27T08:35:30;13.00;1.00
10566;DHT22;5331;48.148;16.326;2022-09-27T08:37:59;12.90;1.00
10566;DHT22;5331;48.148;16.326;2022-09-27T08:40:34;12.80;1.00
10566;DHT22;5331;48.148;16.326;2022-09-27T08:43:11;12.70;1.00
10566;DHT22;5331;48.148;16.326;2022-09-27T08:45:59;12.70;1.00
10566;DHT22;5331;48.148;16.326;2022-09-27T08:48:29;12.70;1.00
10566;DHT22;5331;48.148;16.326;2022-09-27T08:50:57;12.80;1.00
10566;DHT22;5331;48.148;16.326;2022-09-27T08:53:29;12.70;1.00
10566;DHT22;5331;48.148;16.326;2022-09-27T08:55:59;12.70;1.00
10566;DHT22;5331;48.148;16.326;2022-09-27T08:58:31;12.70;1.00
10566;DHT22;5331;48.148;16.326;2022-09-27T09:01:02;12.70;1.00
10566;DHT22;5331;48.148;16.326;2022-09-27T09:03:31;12.80;1.00
10566;DHT22;5331;48.148;16.326;2022-09-27T09:06:08;12.90;1.00
10566;DHT22;5331;48.148;16.326;2022-09-27T09:08:45;13.00;1.00
10566;DHT22;5331;48.148;16.326;2022-09-27T09:11:24;13.00;1.00
10566;DHT22;5331;48.148;16.326;2022-09-27T09:14:29;13.20;1.00
10566;DHT22;5331;48.148;16.326;2022-09-27T09:17:08;13.30;1.00
10566;DHT22;5331;48.148;16.326;2022-09-27T09:19:46;13.30;1.00
10566;DHT22;5331;48.148;16.326;2022-09-27T09:22:29;13.30;1.00
10566;DHT22;5331;48.148;16.326;2022-09-27T09:25:14;13.30;1.00
10566;DHT22;5331;48.148;16.326;2022-09-27T09:27:49;13.30;1.00
10566;DHT22;5331;48.148;16.326;2022-09-27T09:30:22;13.30;1.00
10566;DHT22;5331;48.148;16.326;2022-09-27T09:33:00;13.30;1.00
10566;DHT22;5331;48.148;16.326;2022-09-27T09:35:39;13.30;1.00
10566;DHT22;5331;48.148;16.326;2022-09-27T09:38:11;13.30;1.00
10566;DHT22;5331;48.148;16.326;2022-09-27T09:40:43;13.30;1.00
10566;DHT22;5331;48.148;16.326;2022-09-27T09:43:17;13.40;1.00
10566;DHT22;5331;48.148;16.326;2022-09-27T09:45:49;13.50;1.00
10566;DHT22;5331;48.148;16.326;2022-09-27T09:48:26;13.50;1.00
10566;DHT22;5331;48.148;16.326;2022-09-27T09:50:56;13.60;1.00
10566;DHT22;5331;48.148;16.326;2022-09-27T09:53:35;13.60;1.00
10566;DHT22;5331;48.148;16.326;2022-09-27T09:56:10;13.70;1.00
10566;DHT22;5331;48.148;16.326;2022-09-27T09:58:43;13.80;1.00
10566;DHT22;5331;48.148;16.326;2022-09-27T10:01:18;13.80;1.00
10566;DHT22;5331;48.148;16.326;2022-09-27T10:03:47;13.90;1.00
10566;DHT22;5331;48.148;16.326;2022-09-27T10:06:15;14.10;1.00
10566;DHT22;5331;48.148;16.326;2022-09-27T10:08:42;14.20;1.00
10566;DHT22;5331;48.148;16.326;2022-09-27T10:11:18;14.30;1.00
10566;DHT22;5331;48.148;16.326;2022-09-27T10:13:47;14.50;1.00
10566;DHT22;5331;48.148;16.326;2022-09-27T10:16:18;14.60;1.00
10566;DHT22;5331;48.148;16.326;2022-09-27T10:18:46;14.70;1.00
10566;DHT22;5331;48.148;16.326;2022-09-27T10:21:19;14.80;1.00
10566;DHT22;5331;48.148;16.326;2022-09-27T10:24:04;14.90;1.00
10566;DHT22;5331;48.148;16.326;2022-09-27T10:26:34;15.00;1.00
10566;DHT22;5331;48.148;16.326;2022-09-27T10:29:23;15.10;1.00
10566;DHT22;5331;48.148;16.326;2022-09-27T10:31:52;15.20;1.00
10566;DHT22;5331;48.148;16.326;2022-09-27T10:34:24;15.20;1.00
10566;DHT22;5331;48.148;16.326;2022-09-27T10:37:03;15.20;1.00
10566;DHT22;5331;48.148;16.326;2022-09-27T10:39:30;15.10;1.00
10566;DHT22;5331;48.148;16.326;2022-09-27T10:41:57;15.20;1.00
10566;DHT22;5331;48.148;16.326;2022-09-27T10:44:25;15.20;1.00
10566;DHT22;5331;48.148;16.326;2022-09-27T10:46:56;15.40;1.00
10566;DHT22;5331;48.148;16.326;2022-09-27T10:49:26;15.40;1.00
10566;DHT22;5331;48.148;16.326;2022-09-27T10:51:56;15.50;1.00
10566;DHT22;5331;48.148;16.326;2022-09-27T10:54:26;15.60;1.00
10566;DHT22;5331;48.148;16.326;2022-09-27T10:56:55;15.60;1.00
10566;DHT22;5331;48.148;16.326;2022-09-27T10:59:24;15.70;1.00
10566;DHT22;5331;48.148;16.326;2022-09-27T11:01:51;15.80;1.00
10566;DHT22;5331;48.148;16.326;2022-09-27T11:04:24;15.90;1.00
10566;DHT22;5331;48.148;16.326;2022-09-27T11:06:56;15.70;1.00
10566;DHT22;5331;48.148;16.326;2022-09-27T11:09:42;15.50;1.00
10566;DHT22;5331;48.148;16.326;2022-09-27T11:12:11;15.50;1.00
10566;DHT22;5331;48.148;16.326;2022-09-27T11:14:39;15.60;1.00
10566;DHT22;5331;48.148;16.326;2022-09-27T11:17:11;15.70;1.00
10566;DHT22;5331;48.148;16.326;2022-09-27T11:19:53;15.70;1.00
10566;DHT22;5331;48.148;16.326;2022-09-27T11:22:37;15.70;1.00
10566;DHT22;5331;48.148;16.326;2022-09-27T11:25:16;15.50;1.00
10566;DHT22;5331;48.148;16.326;2022-09-27T11:27:55;15.50;1.00
10566;DHT22;5331;48.148;16.326;2022-09-27T11:30:30;15.40;1.00
10566;DHT22;5331;48.148;16.326;2022-09-27T11:33:14;15.30;1.00
10566;DHT22;5331;48.148;16.326;2022-09-27T11:35:54;15.20;1.00
10566;DHT22;5331;48.148;16.326;2022-09-27T11:38:28;15.10;1.00
10566;DHT22;5331;48.148;16.326;2022-09-27T11:41:08;15.00;1.00
10566;DHT22;5331;48.148;16.326;2022-09-27T11:43:59;15.00;1.00
10566;DHT22;5331;48.148;16.326;2022-09-27T11:46:30;15.00;1.00
10566;DHT22;5331;48.148;16.326;2022-09-27T11:49:12;14.90;1.00
10566;DHT22;5331;48.148;16.326;2022-09-27T11:52:05;14.90;1.00
10566;DHT22;5331;48.148;16.326;2022-09-27T11:54:57;14.80;1.00
10566;DHT22;5331;48.148;16.326;2022-09-27T11:57:31;14.70;1.00
10566;DHT22;5331;48.148;16.326;2022-09-27T12:00:19;14.60;1.00
10566;DHT22;5331;48.148;16.326;2022-09-27T12:03:31;14.70;1.00
10566;DHT22;5331;48.148;16.326;2022-09-27T12:06:08;14.80;1.00
10566;DHT22;5331;48.148;16.326;2022-09-27T12:08:48;14.90;1.00
10566;DHT22;5331;48.148;16.326;2022-09-27T12:11:23;14.90;1.00
10566;DHT22;5331;48.148;16.326;2022-09-27T12:13:56;14.90;1.00
10566;DHT22;5331;48.148;16.326;2022-09-27T12:16:25;14.90;1.00
10566;DHT22;5331;48.148;16.326;2022-09-27T12:18:56;15.00;1.00
10566;DHT22;5331;48.148;16.326;2022-09-27T12:21:24;14.90;1.00
10566;DHT22;5331;48.148;16.326;2022-09-27T12:23:55;15.00;1.00
10566;DHT22;5331;48.148;16.326;2022-09-27T12:26:26;15.00;1.00
10566;DHT22;5331;48.148;16.326;2022-09-27T12:28:57;15.00;1.00
10566;DHT22;5331;48.148;16.326;2022-09-27T12:31:28;14.90;1.00
10566;DHT22;5331;48.148;16.326;2022-09-27T12:34:07;15.00;1.00
10566;DHT22;5331;48.148;16.326;2022-09-27T12:36:40;15.00;1.00
10566;DHT22;5331;48.148;16.326;2022-09-27T12:39:17;15.00;1.00
10566;DHT22;5331;48.148;16.326;2022-09-27T12:41:50;15.00;1.00
10566;DHT22;5331;48.148;16.326;2022-09-27T12:44:21;15.00;1.00
10566;DHT22;5331;48.148;16.326;2022-09-27T12:46:55;15.10;1.00
10566;DHT22;5331;48.148;16.326;2022-09-27T12:49:31;15.10;1.00
10566;DHT22;5331;48.148;16.326;2022-09-27T12:52:03;15.10;1.00
10566;DHT22;5331;48.148;16.326;2022-09-27T12:55:12;15.10;1.00
10566;DHT22;5331;48.148;16.326;2022-09-27T12:57:49;15.20;1.00
10566;DHT22;5331;48.148;16.326;2022-09-27T13:00:19;15.10;1.00
10566;DHT22;5331;48.148;16.326;2022-09-27T13:02:59;15.00;1.00
10566;DHT22;5331;48.148;16.326;2022-09-27T13:11:43;15.00;1.00
10566;DHT22;5331;48.148;16.326;2022-09-27T13:14:17;15.00;1.00
10566;DHT22;5331;48.148;16.326;2022-09-27T13:16:47;15.00;1.00
10566;DHT22;5331;48.148;16.326;2022-09-27T13:19:38;14.80;1.00
10566;DHT22;5331;48.148;16.326;2022-09-27T13:22:08;14.60;1.00
10566;DHT22;5331;48.148;16.326;2022-09-27T13:24:40;14.60;1.00
10566;DHT22;5331;48.148;16.326;2022-09-27T13:30:47;14.60;1.00
10566;DHT22;5331;48.148;16.326;2022-09-27T13:33:41;14.50;1.00
10566;DHT22;5331;48.148;16.326;2022-09-27T13:36:29;14.50;1.00
10566;DHT22;5331;48.148;16.326;2022-09-27T13:39:19;14.50;1.00
10566;DHT22;5331;48.148;16.326;2022-09-27T13:42:06;14.50;1.00
10566;DHT22;5331;48.148;16.326;2022-09-27T13:44:42;14.50;1.00
10566;DHT22;5331;48.148;16.326;2022-09-27T13:47:23;14.50;1.00
10566;DHT22;5331;48.148;16.326;2022-09-27T13:49:54;14.50;1.00
10566;DHT22;5331;48.148;16.326;2022-09-27T13:52:27;14.50;1.00
10566;DHT22;5331;48.148;16.326;2022-09-27T13:54:59;14.50;1.00
10566;DHT22;5331;48.148;16.326;2022-09-27T13:57:41;14.50;1.00
10566;DHT22;5331;48.148;16.326;2022-09-27T14:00:12;14.50;1.00
10566;DHT22;5331;48.148;16.326;2022-09-27T14:02:50;14.50;1.00
10566;DHT22;5331;48.148;16.326;2022-09-27T14:05:23;14.50;1.00
10566;DHT22;5331;48.148;16.326;2022-09-27T14:07:52;14.50;1.00
10566;DHT22;5331;48.148;16.326;2022-09-27T14:10:21;14.50;1.00
10566;DHT22;5331;48.148;16.326;2022-09-27T14:12:51;14.50;1.00
10566;DHT22;5331;48.148;16.326;2022-09-27T14:15:21;14.40;1.00
10566;DHT22;5331;48.148;16.326;2022-09-27T14:17:52;14.40;1.00
10566;DHT22;5331;48.148;16.326;2022-09-27T14:20:35;14.40;1.00
10566;DHT22;5331;48.148;16.326;2022-09-27T14:23:05;14.40;1.00
10566;DHT22;5331;48.148;16.326;2022-09-27T14:25:32;14.30;1.00
10566;DHT22;5331;48.148;16.326;2022-09-27T14:27:59;14.30;1.00
10566;DHT22;5331;48.148;16.326;2022-09-27T14:30:28;14.20;1.00
10566;DHT22;5331;48.148;16.326;2022-09-27T14:32:57;14.20;1.00
10566;DHT22;5331;48.148;16.326;2022-09-27T14:35:29;14.20;1.00
10566;DHT22;5331;48.148;16.326;2022-09-27T14:38:19;14.10;1.00
10566;DHT22;5331;48.148;16.326;2022-09-27T14:40:57;14.10;1.00
10566;DHT22;5331;48.148;16.326;2022-09-27T14:43:28;14.00;1.00
10566;DHT22;5331;48.148;16.326;2022-09-27T14:45:59;14.00;1.00
10566;DHT22;5331;48.148;16.326;2022-09-27T14:48:29;14.00;1.00
10566;DHT22;5331;48.148;16.326;2022-09-27T14:50:59;14.00;1.00
10566;DHT22;5331;48.148;16.326;2022-09-27T14:53:29;14.00;1.00
10566;DHT22;5331;48.148;16.326;2022-09-27T14:55:57;14.00;1.00
10566;DHT22;5331;48.148;16.326;2022-09-27T14:58:26;14.00;1.00
10566;DHT22;5331;48.148;16.326;2022-09-27T15:00:58;14.00;1.00
10566;DHT22;5331;48.148;16.326;2022-09-27T15:03:29;14.00;1.00
10566;DHT22;5331;48.148;16.326;2022-09-27T15:05:57;14.10;1.00
10566;DHT22;5331;48.148;16.326;2022-09-27T15:08:28;14.10;1.00
10566;DHT22;5331;48.148;16.326;2022-09-27T15:10:59;14.00;1.00
10566;DHT22;5331;48.148;16.326;2022-09-27T15:13:27;14.00;1.00
10566;DHT22;5331;48.148;16.326;2022-09-27T15:15:56;13.90;1.00
10566;DHT22;5331;48.148;16.326;2022-09-27T15:18:38;13.90;1.00
10566;DHT22;5331;48.148;16.326;2022-09-27T15:21:06;13.90;1.00
10566;DHT22;5331;48.148;16.326;2022-09-27T15:23:35;13.80;1.00
10566;DHT22;5331;48.148;16.326;2022-09-27T15:26:07;13.80;1.00
10566;DHT22;5331;48.148;16.326;2022-09-27T15:28:36;13.90;1.00
10566;DHT22;5331;48.148;16.326;2022-09-27T15:31:04;13.90;1.00
10566;DHT22;5331;48.148;16.326;2022-09-27T15:33:34;13.90;1.00
10566;DHT22;5331;48.148;16.326;2022-09-27T15:36:03;13.80;1.00
10566;DHT22;5331;48.148;16.326;2022-09-27T15:38:31;13.80;1.00
10566;DHT22;5331;48.148;16.326;2022-09-27T15:41:04;13.90;1.00
10566;DHT22;5331;48.148;16.326;2022-09-27T15:43:34;13.80;1.00
10566;DHT22;5331;48.148;16.326;2022-09-27T15:46:04;13.80;1.00
10566;DHT22;5331;48.148;16.326;2022-09-27T15:48:33;13.70;1.00
10566;DHT22;5331;48.148;16.326;2022-09-27T15:51:02;13.70;1.00
10566;DHT22;5331;48.148;16.326;2022-09-27T15:53:50;13.80;1.00
10566;DHT22;5331;48.148;16.326;2022-09-27T15:56:17;13.80;1.00
10566;DHT22;5331;48.148;16.326;2022-09-27T15:58:46;13.70;1.00
10566;DHT22;5331;48.148;16.326;2022-09-27T16:01:19;13.70;1.00
10566;DHT22;5331;48.148;16.326;2022-09-27T16:03:47;13.60;1.00
10566;DHT22;5331;48.148;16.326;2022-09-27T16:06:14;13.60;1.00
10566;DHT22;5331;48.148;16.326;2022-09-27T16:08:41;13.60;1.00
10566;DHT22;5331;48.148;16.326;2022-09-27T16:11:14;13.60;1.00
10566;DHT22;5331;48.148;16.326;2022-09-27T16:13:42;13.60;1.00
10566;DHT22;5331;48.148;16.326;2022-09-27T16:16:18;13.60;1.00
10566;DHT22;5331;48.148;16.326;2022-09-27T16:18:47;13.60;1.00
10566;DHT22;5331;48.148;16.326;2022-09-27T16:21:14;13.60;1.00
10566;DHT22;5331;48.148;16.326;2022-09-27T16:23:42;13.60;1.00
10566;DHT22;5331;48.148;16.326;2022-09-27T16:26:09;13.60;1.00
10566;DHT22;5331;48.148;16.326;2022-09-27T16:28:37;13.60;1.00
10566;DHT22;5331;48.148;16.326;2022-09-27T16:31:05;13.50;1.00